createdAt,value
2022-12-19T00:01:22.635Z,4.52
2022-12-19T00:03:53.658Z,4.52
2022-12-19T00:06:20.836Z,4.53
2022-12-19T00:08:50.165Z,4.53
2022-12-19T00:11:18.403Z,4.54
2022-12-19T00:13:45.506Z,4.55
2022-12-19T00:16:15.892Z,4.54
2022-12-19T00:18:46.760Z,4.54
2022-12-19T00:21:16.268Z,4.56
2022-12-19T00:23:43.820Z,4.56
2022-12-19T00:26:16.738Z,4.57
2022-12-19T00:28:47.135Z,4.59
2022-12-19T00:31:15.679Z,4.63
2022-12-19T00:33:43.699Z,4.64
2022-12-19T00:36:14.519Z,4.66
2022-12-19T00:38:44.173Z,4.65
2022-12-19T00:41:20.680Z,4.66
2022-12-19T00:43:52.664Z,4.68
2022-12-19T00:46:19.398Z,4.70
2022-12-19T00:48:45.934Z,4.72
2022-12-19T00:51:17.900Z,4.72
2022-12-19T00:53:46.150Z,4.73
2022-12-19T00:56:17.848Z,4.74
2022-12-19T00:58:47.373Z,4.76
2022-12-19T01:01:29.288Z,4.76
2022-12-19T01:04:27.360Z,4.81
2022-12-19T01:06:44.938Z,4.83
2022-12-19T01:09:12.374Z,4.86
2022-12-19T01:11:57.591Z,4.90
2022-12-19T01:14:24.656Z,4.92
2022-12-19T01:16:51.960Z,4.94
2022-12-19T01:19:19.587Z,4.96
2022-12-19T01:21:46.655Z,5.00
2022-12-19T01:24:13.746Z,5.03
2022-12-19T01:26:49.151Z,5.06
2022-12-19T01:29:15.652Z,5.09
2022-12-19T01:31:42.337Z,5.12
2022-12-19T01:34:09.127Z,5.15
2022-12-19T01:36:39.643Z,5.17
2022-12-19T01:39:07.584Z,5.20
2022-12-19T01:41:34.910Z,5.23
2022-12-19T01:44:04.827Z,5.25
2022-12-19T01:46:42.395Z,5.27
2022-12-19T01:49:29.844Z,5.30
2022-12-19T01:52:10.975Z,5.35
2022-12-19T01:54:42.011Z,5.37
2022-12-19T01:57:13.246Z,5.40
2022-12-19T01:59:47.737Z,5.42
2022-12-19T02:02:23.404Z,5.42
2022-12-19T02:04:50.064Z,5.44
2022-12-19T02:07:18.566Z,5.46
2022-12-19T02:09:46.872Z,5.49
2022-12-19T02:12:14.311Z,5.53
2022-12-19T02:14:41.858Z,5.57
2022-12-19T02:17:41.876Z,5.59
2022-12-19T02:20:24.077Z,5.66
2022-12-19T02:23:27.999Z,5.68
2022-12-19T02:26:32.927Z,5.72
2022-12-19T02:29:23.730Z,5.75
2022-12-19T02:32:18.580Z,5.76
2022-12-19T02:35:04.224Z,5.78
2022-12-19T02:37:36.061Z,5.80
2022-12-19T02:40:50.074Z,5.81
2022-12-19T02:43:23.874Z,5.87
2022-12-19T02:45:52.637Z,5.90
2022-12-19T02:48:20.077Z,5.92
2022-12-19T02:50:48.446Z,5.93
2022-12-19T02:53:18.223Z,5.95
2022-12-19T02:56:01.373Z,5.97
2022-12-19T02:58:57.011Z,5.99
2022-12-19T03:01:40.146Z,6.01
2022-12-19T03:04:19.241Z,6.02
2022-12-19T03:07:03.786Z,6.03
2022-12-19T03:10:06.370Z,6.06
2022-12-19T03:12:39.427Z,6.08
2022-12-19T03:15:07.198Z,6.10
2022-12-19T03:17:38.126Z,6.11
2022-12-19T03:20:10.416Z,6.10
2022-12-19T03:22:37.107Z,6.12
2022-12-19T03:25:03.813Z,6.18
2022-12-19T03:27:35.644Z,6.18
2022-12-19T03:30:08.762Z,6.22
2022-12-19T03:32:38.164Z,6.25
2022-12-19T03:35:14.288Z,6.27
2022-12-19T03:37:43.166Z,6.28
2022-12-19T03:40:22.103Z,6.29
2022-12-19T03:43:11.372Z,6.34
2022-12-19T03:46:02.690Z,6.37
2022-12-19T03:48:45.257Z,6.43
2022-12-19T03:51:37.754Z,6.47
2022-12-19T03:54:18.818Z,6.52
2022-12-19T03:57:02.135Z,6.57
2022-12-19T03:59:39.361Z,6.61
2022-12-19T04:02:08.193Z,6.64
2022-12-19T04:04:43.589Z,6.68
2022-12-19T04:07:12.818Z,6.69
2022-12-19T04:09:42.535Z,6.72
2022-12-19T04:12:15.371Z,6.75
2022-12-19T04:14:42.239Z,6.77
2022-12-19T04:17:26.890Z,6.79
2022-12-19T04:20:12.840Z,6.85
2022-12-19T04:22:51.153Z,6.90
2022-12-19T04:25:29.154Z,6.99
2022-12-19T04:28:01.853Z,7.01
2022-12-19T04:30:28.432Z,7.03
2022-12-19T04:32:55.442Z,7.04
2022-12-19T04:35:22.017Z,7.08
2022-12-19T04:37:48.579Z,7.11
2022-12-19T04:40:15.386Z,7.15
2022-12-19T04:42:41.954Z,7.18
2022-12-19T04:45:09.403Z,7.22
2022-12-19T04:47:36.082Z,7.27
2022-12-19T04:50:02.588Z,7.32
2022-12-19T04:52:29.094Z,7.37
2022-12-19T04:54:55.618Z,7.43
2022-12-19T04:57:22.222Z,7.48
2022-12-19T04:59:48.726Z,7.53
2022-12-19T05:02:15.335Z,7.56
2022-12-19T05:04:41.958Z,7.61
2022-12-19T05:07:08.622Z,7.65
2022-12-19T05:09:36.669Z,7.70
2022-12-19T05:12:03.352Z,7.74
2022-12-19T05:14:29.954Z,7.78
2022-12-19T05:17:01.565Z,7.82
2022-12-19T05:19:28.424Z,7.86
2022-12-19T05:21:55.126Z,7.89
2022-12-19T05:24:22.026Z,7.94
2022-12-19T05:26:49.745Z,7.99
2022-12-19T05:29:17.198Z,8.02
2022-12-19T05:31:43.820Z,8.05
2022-12-19T05:34:10.446Z,8.10
2022-12-19T05:36:36.928Z,8.16
2022-12-19T05:39:03.451Z,8.19
2022-12-19T05:41:30.024Z,8.23
2022-12-19T05:43:56.883Z,8.27
2022-12-19T05:46:24.691Z,8.32
2022-12-19T05:48:52.509Z,8.37
2022-12-19T05:51:19.741Z,8.40
2022-12-19T05:53:46.562Z,8.45
2022-12-19T05:56:16.015Z,8.49
2022-12-19T05:58:43.366Z,8.55
2022-12-19T06:01:12.885Z,8.62
2022-12-19T06:03:39.839Z,8.66
2022-12-19T06:06:12.218Z,8.71
2022-12-19T06:08:39.447Z,8.76
2022-12-19T06:11:07.650Z,8.80
2022-12-19T06:13:35.970Z,8.84
2022-12-19T06:16:05.644Z,8.90
2022-12-19T06:18:32.336Z,8.95
2022-12-19T06:21:00.790Z,9.00
2022-12-19T06:23:30.742Z,9.05
2022-12-19T06:25:58.366Z,9.12
2022-12-19T06:28:26.403Z,9.16
2022-12-19T06:30:56.185Z,9.24
2022-12-19T06:33:23.511Z,9.31
2022-12-19T06:36:05.737Z,9.37
2022-12-19T06:38:33.395Z,9.45
2022-12-19T06:41:19.139Z,9.50
2022-12-19T06:43:49.197Z,9.59
2022-12-19T06:46:19.824Z,9.61
2022-12-19T06:48:46.447Z,9.66
2022-12-19T06:51:12.997Z,9.72
2022-12-19T06:53:40.295Z,9.75
2022-12-19T06:56:07.111Z,9.81
2022-12-19T06:58:34.775Z,9.83
2022-12-19T07:01:01.699Z,9.86
2022-12-19T07:03:41.292Z,9.90
2022-12-19T07:06:08.701Z,9.93
2022-12-19T07:08:35.248Z,9.97
2022-12-19T07:11:01.811Z,10.00
2022-12-19T07:13:28.405Z,10.04
2022-12-19T07:15:58.575Z,10.06
2022-12-19T07:18:25.312Z,10.09
2022-12-19T07:20:51.991Z,10.13
2022-12-19T07:23:21.049Z,10.17
2022-12-19T07:25:47.726Z,10.18
2022-12-19T07:28:15.191Z,10.23
2022-12-19T07:30:41.811Z,10.27
2022-12-19T07:33:11.080Z,10.30
2022-12-19T07:35:38.512Z,10.34
2022-12-19T07:38:06.553Z,10.35
2022-12-19T07:40:34.070Z,10.39
2022-12-19T07:43:02.711Z,10.42
2022-12-19T07:45:30.049Z,10.43
2022-12-19T07:48:00.618Z,10.45
2022-12-19T07:50:27.296Z,10.47
2022-12-19T07:52:53.806Z,10.49
2022-12-19T07:55:20.361Z,10.51
2022-12-19T07:57:46.999Z,10.50
2022-12-19T08:00:14.180Z,10.53
2022-12-19T08:02:40.966Z,10.55
2022-12-19T08:05:08.071Z,10.55
2022-12-19T08:07:34.726Z,10.57
2022-12-19T08:10:01.254Z,10.58
2022-12-19T08:12:27.789Z,10.59
2022-12-19T08:14:57.295Z,10.58
2022-12-19T08:17:24.293Z,10.60
2022-12-19T08:19:50.869Z,10.61
2022-12-19T08:22:17.411Z,10.63
2022-12-19T08:24:44.041Z,10.65
2022-12-19T08:27:10.659Z,10.65
2022-12-19T08:29:37.142Z,10.66
2022-12-19T08:32:03.738Z,10.66
2022-12-19T08:34:30.344Z,10.66
2022-12-19T08:36:56.903Z,10.67
2022-12-19T08:39:23.397Z,10.67
2022-12-19T08:41:49.936Z,10.67
2022-12-19T08:44:16.451Z,10.67
2022-12-19T08:46:49.417Z,10.68
2022-12-19T08:49:16.744Z,10.68
2022-12-19T08:51:43.434Z,10.69
2022-12-19T08:54:11.932Z,10.69
2022-12-19T08:56:46.158Z,10.70
2022-12-19T08:59:15.840Z,10.73
2022-12-19T09:01:46.852Z,10.74
2022-12-19T09:04:51.721Z,10.76
2022-12-19T09:06:59.965Z,10.77
2022-12-19T09:09:27.140Z,10.79
2022-12-19T09:11:53.597Z,10.78
2022-12-19T09:14:21.053Z,10.82
2022-12-19T09:16:49.253Z,10.83
2022-12-19T09:19:16.563Z,10.83
2022-12-19T09:21:43.531Z,10.87
2022-12-19T09:24:11.234Z,10.89
2022-12-19T09:26:42.165Z,10.92
2022-12-19T09:29:20.683Z,10.94
2022-12-19T09:31:55.354Z,10.97
2022-12-19T09:34:22.950Z,10.99
2022-12-19T09:36:50.966Z,11.01
2022-12-19T09:39:18.416Z,11.01
2022-12-19T09:41:47.930Z,11.03
2022-12-19T09:44:30.908Z,11.04
2022-12-19T09:47:01.101Z,11.08
2022-12-19T09:49:41.746Z,11.09
2022-12-19T09:52:37.088Z,11.11
2022-12-19T09:55:06.123Z,11.16
2022-12-19T09:57:39.552Z,11.16
2022-12-19T10:00:15.124Z,11.19
2022-12-19T10:02:48.590Z,11.22
2022-12-19T10:06:20.262Z,11.25
2022-12-19T10:08:17.849Z,11.29
2022-12-19T10:12:40.778Z,11.31
2022-12-19T10:14:26.249Z,11.36
2022-12-19T10:17:24.794Z,11.40
2022-12-19T10:20:10.402Z,11.42
2022-12-19T10:22:51.312Z,11.44
2022-12-19T10:25:29.678Z,11.49
2022-12-19T10:28:15.747Z,11.49
2022-12-19T10:31:31.162Z,11.52
2022-12-19T10:34:21.150Z,11.54
2022-12-19T10:39:55.267Z,11.59
2022-12-19T10:42:30.841Z,11.59
2022-12-19T10:45:02.596Z,11.61
2022-12-19T10:47:31.269Z,11.63
2022-12-19T10:50:01.402Z,11.63
2022-12-19T10:52:52.507Z,11.65
2022-12-19T10:55:29.967Z,11.66
2022-12-19T10:58:00.380Z,11.68
2022-12-19T11:00:28.298Z,11.68
2022-12-19T11:03:19.111Z,11.69
2022-12-19T11:05:57.509Z,11.71
2022-12-19T11:08:31.380Z,11.71
2022-12-19T11:12:02.632Z,11.72
2022-12-19T11:18:10.853Z,11.73
2022-12-19T11:20:06.086Z,11.75
2022-12-19T11:29:25.675Z,11.78
2022-12-19T11:29:30.743Z,11.80
2022-12-19T11:29:44.967Z,11.85
2022-12-19T11:30:47.265Z,11.81
2022-12-19T11:32:32.264Z,11.85
2022-12-19T11:34:19.396Z,11.84
2022-12-19T11:36:57.746Z,11.85
2022-12-19T11:39:48.082Z,11.85
2022-12-19T11:42:29.408Z,11.87
2022-12-19T11:45:32.450Z,11.87
2022-12-19T11:48:10.352Z,11.88
2022-12-19T11:50:48.413Z,11.90
2022-12-19T11:53:19.914Z,11.93
2022-12-19T11:56:16.506Z,11.94
2022-12-19T11:58:50.317Z,11.98
2022-12-19T12:01:51.168Z,11.99
2022-12-19T12:04:35.773Z,12.01
2022-12-19T12:07:14.249Z,12.03
2022-12-19T12:14:22.676Z,12.05
2022-12-19T12:17:53.243Z,12.08
2022-12-19T12:31:01.055Z,12.11
2022-12-19T12:31:17.623Z,12.19
2022-12-19T12:31:22.672Z,12.14
2022-12-19T12:31:48.725Z,12.23
2022-12-19T12:35:07.037Z,12.23
2022-12-19T12:35:56.481Z,12.24
2022-12-19T12:38:39.046Z,12.27
2022-12-19T12:41:47.208Z,12.28
2022-12-19T12:44:14.092Z,12.31
2022-12-19T12:46:47.870Z,12.30
2022-12-19T12:49:44.071Z,12.32
2022-12-19T12:52:20.085Z,12.38
2022-12-19T12:54:49.455Z,12.41
2022-12-19T12:57:20.295Z,12.46
2022-12-19T13:00:08.591Z,12.52
2022-12-19T13:02:35.939Z,12.56
2022-12-19T13:05:23.370Z,12.59
2022-12-19T13:07:55.074Z,12.64
2022-12-19T13:10:27.667Z,12.65
2022-12-19T13:13:16.612Z,12.68
2022-12-19T13:15:46.033Z,12.70
2022-12-19T13:19:01.752Z,12.70
2022-12-19T13:22:09.280Z,12.73
2022-12-19T13:24:54.650Z,12.76
2022-12-19T13:27:21.158Z,12.77
2022-12-19T13:29:56.823Z,12.76
2022-12-19T13:32:23.815Z,12.78
2022-12-19T13:36:15.465Z,12.80
2022-12-19T13:39:51.157Z,12.84
2022-12-19T13:41:27.095Z,12.85
2022-12-19T13:43:59.898Z,12.86
2022-12-19T13:46:31.194Z,12.85
2022-12-19T13:49:03.780Z,12.86
2022-12-19T13:51:41.267Z,12.85
2022-12-19T13:54:19.288Z,12.85
2022-12-19T13:56:45.840Z,12.86
2022-12-19T13:59:13.080Z,12.85
2022-12-19T14:01:40.853Z,12.85
2022-12-19T14:04:16.402Z,12.85
2022-12-19T14:06:45.469Z,12.89
2022-12-19T14:11:28.391Z,12.91
2022-12-19T14:12:49.268Z,12.89
2022-12-19T14:15:13.972Z,12.88
2022-12-19T14:17:40.833Z,12.88
2022-12-19T14:22:02.840Z,12.85
2022-12-19T14:23:14.211Z,12.85
2022-12-19T14:28:21.384Z,12.82
2022-12-19T14:28:47.577Z,12.81
2022-12-19T14:31:19.682Z,12.81
2022-12-19T14:36:39.991Z,12.79
2022-12-19T14:39:27.870Z,12.79
2022-12-19T14:42:19.274Z,12.80
2022-12-19T14:52:35.577Z,12.80
2022-12-19T14:54:05.399Z,12.79
2022-12-19T14:54:25.032Z,12.81
2022-12-19T14:54:51.480Z,12.81
2022-12-19T14:58:59.258Z,12.83
2022-12-19T15:01:33.542Z,12.82
2022-12-19T15:04:49.547Z,12.84
2022-12-19T15:07:07.232Z,12.84
2022-12-19T15:11:08.132Z,12.83
2022-12-19T15:14:54.529Z,12.83
2022-12-19T15:16:23.084Z,12.85
2022-12-19T15:18:51.531Z,12.85
2022-12-19T15:21:18.043Z,12.83
2022-12-19T15:23:45.342Z,12.82
2022-12-19T15:26:18.231Z,12.80
2022-12-19T15:28:50.777Z,12.81
2022-12-19T15:31:24.281Z,12.81
2022-12-19T15:34:32.367Z,12.81
2022-12-19T15:36:37.600Z,12.81
2022-12-19T15:39:04.531Z,12.81
2022-12-19T15:41:31.455Z,12.78
2022-12-19T15:44:06.131Z,12.78
2022-12-19T15:46:33.549Z,12.77
2022-12-19T15:49:01.154Z,12.77
2022-12-19T15:51:27.913Z,12.75
2022-12-19T15:53:56.979Z,12.74
2022-12-19T15:56:35.119Z,12.75
2022-12-19T15:59:03.271Z,12.72
2022-12-19T16:01:32.037Z,12.72
2022-12-19T16:04:00.766Z,12.71
2022-12-19T16:06:28.502Z,12.70
2022-12-19T16:08:55.792Z,12.70
2022-12-19T16:11:24.459Z,12.71
2022-12-19T16:13:56.725Z,12.71
2022-12-19T16:16:23.448Z,12.72
2022-12-19T16:18:50.115Z,12.71
2022-12-19T16:21:27.530Z,12.70
2022-12-19T16:23:59.943Z,12.75
2022-12-19T16:26:33.490Z,12.74
2022-12-19T16:29:00.787Z,12.77
2022-12-19T16:31:28.022Z,12.77
2022-12-19T16:33:54.944Z,12.77
2022-12-19T16:36:21.578Z,12.78
2022-12-19T16:38:48.181Z,12.78
2022-12-19T16:41:18.260Z,12.80
2022-12-19T16:43:45.661Z,12.80
2022-12-19T16:46:23.798Z,12.82
2022-12-19T16:48:50.723Z,12.83
2022-12-19T16:51:20.054Z,12.85
2022-12-19T16:53:47.831Z,12.84
2022-12-19T16:56:34.541Z,12.83
2022-12-19T16:59:08.325Z,12.83
2022-12-19T17:01:35.767Z,12.84
2022-12-19T17:04:02.434Z,12.84
2022-12-19T17:06:28.968Z,12.84
2022-12-19T17:08:55.559Z,12.84
2022-12-19T17:11:25.885Z,12.84
2022-12-19T17:14:01.309Z,12.83
2022-12-19T17:16:28.917Z,12.87
2022-12-19T17:18:57.681Z,12.90
2022-12-19T17:21:24.267Z,12.90
2022-12-19T17:23:51.599Z,12.89
2022-12-19T17:26:18.625Z,12.87
2022-12-19T17:28:48.205Z,12.87
2022-12-19T17:31:23.265Z,12.86
2022-12-19T17:33:50.367Z,12.87
2022-12-19T17:36:21.391Z,12.87
2022-12-19T17:38:51.312Z,12.89
2022-12-19T17:41:20.961Z,12.88
2022-12-19T17:43:47.608Z,12.91
2022-12-19T17:46:22.749Z,12.92
2022-12-19T17:48:52.131Z,12.94
2022-12-19T17:51:21.309Z,12.95
2022-12-19T17:53:48.060Z,12.96
2022-12-19T17:56:17.179Z,12.97
2022-12-19T17:58:44.268Z,12.98
2022-12-19T18:01:22.453Z,13.00
2022-12-19T18:03:51.032Z,13.01
2022-12-19T18:06:18.170Z,13.03
2022-12-19T18:08:44.919Z,13.02
2022-12-19T18:11:19.866Z,13.02
2022-12-19T18:13:47.471Z,13.04
2022-12-19T18:16:17.257Z,13.03
2022-12-19T18:18:44.506Z,13.03
2022-12-19T18:21:15.004Z,13.03
2022-12-19T18:23:41.775Z,13.04
2022-12-19T18:26:10.737Z,13.04
2022-12-19T18:28:38.140Z,13.04
2022-12-19T18:31:14.309Z,13.04
2022-12-19T18:33:43.523Z,13.08
2022-12-19T18:36:25.102Z,13.08
2022-12-19T18:38:52.862Z,13.11
2022-12-19T18:41:19.995Z,13.12
2022-12-19T18:43:47.090Z,13.12
2022-12-19T18:46:16.703Z,13.12
2022-12-19T18:48:45.490Z,13.14
2022-12-19T18:51:17.754Z,13.15
2022-12-19T18:53:46.067Z,13.16
2022-12-19T18:56:13.084Z,13.18
2022-12-19T18:58:40.048Z,13.19
2022-12-19T19:01:13.479Z,13.21
2022-12-19T19:03:41.824Z,13.24
2022-12-19T19:06:19.027Z,13.25
2022-12-19T19:08:45.954Z,13.27
2022-12-19T19:11:28.580Z,13.27
2022-12-19T19:13:55.382Z,13.26
2022-12-19T19:16:26.909Z,13.26
2022-12-19T19:18:55.701Z,13.26
2022-12-19T19:21:25.484Z,13.26
2022-12-19T19:24:00.279Z,13.26
2022-12-19T19:26:26.876Z,13.27
2022-12-19T19:28:53.401Z,13.26
2022-12-19T19:31:23.456Z,13.25
2022-12-19T19:33:56.098Z,13.25
2022-12-19T19:36:26.861Z,13.25
2022-12-19T19:38:56.008Z,13.25
2022-12-19T19:41:29.171Z,13.27
2022-12-19T19:43:57.243Z,13.25
2022-12-19T19:46:23.787Z,13.26
2022-12-19T19:48:50.287Z,13.27
2022-12-19T19:51:17.324Z,13.28
2022-12-19T19:53:44.145Z,13.28
2022-12-19T19:56:10.881Z,13.28
2022-12-19T19:58:37.474Z,13.28
2022-12-19T20:01:12.240Z,13.29
2022-12-19T20:03:41.885Z,13.33
2022-12-19T20:06:10.254Z,13.35
2022-12-19T20:08:40.057Z,13.35
2022-12-19T20:11:08.979Z,13.36
2022-12-19T20:13:35.952Z,13.36
2022-12-19T20:16:08.450Z,13.35
2022-12-19T20:18:36.457Z,13.33
2022-12-19T20:21:07.806Z,13.31
2022-12-19T20:23:38.113Z,13.31
2022-12-19T20:26:06.283Z,13.31
2022-12-19T20:28:33.268Z,13.34
2022-12-19T20:31:00.466Z,13.34
2022-12-19T20:33:27.587Z,13.36
2022-12-19T20:35:58.182Z,13.39
2022-12-19T20:38:25.206Z,13.39
2022-12-19T20:40:55.659Z,13.38
2022-12-19T20:43:23.445Z,13.41
2022-12-19T20:45:50.581Z,13.42
2022-12-19T20:48:17.476Z,13.44
2022-12-19T20:50:44.195Z,13.46
2022-12-19T20:53:10.753Z,13.46
2022-12-19T20:55:37.333Z,13.48
2022-12-19T20:58:03.928Z,13.49
2022-12-19T21:00:30.512Z,13.50
2022-12-19T21:05:52.214Z,13.51
2022-12-19T21:08:18.715Z,13.50
2022-12-19T21:10:45.219Z,13.49
2022-12-19T21:13:11.846Z,13.49
2022-12-19T21:15:38.520Z,13.52
2022-12-19T21:18:05.224Z,13.51
2022-12-19T21:20:36.564Z,13.51
2022-12-19T21:23:03.147Z,13.51
2022-12-19T21:25:29.908Z,13.48
2022-12-19T21:27:56.442Z,13.44
2022-12-19T21:30:22.998Z,13.40
2022-12-19T21:32:49.784Z,13.36
2022-12-19T21:35:16.355Z,13.32
2022-12-19T21:37:49.715Z,13.30
2022-12-19T21:40:16.749Z,13.26
2022-12-19T21:42:43.278Z,13.27
2022-12-19T21:45:10.798Z,13.26
2022-12-19T21:47:39.617Z,13.24
2022-12-19T21:50:09.230Z,13.21
2022-12-19T21:52:36.653Z,13.18
2022-12-19T21:55:04.557Z,13.18
2022-12-19T21:57:31.057Z,13.18
2022-12-19T21:59:57.592Z,13.17
2022-12-19T22:02:24.268Z,13.18
2022-12-19T22:04:51.000Z,13.21
2022-12-19T22:07:17.553Z,13.22
2022-12-19T22:09:45.295Z,13.22
2022-12-19T22:12:12.878Z,13.22
2022-12-19T22:14:39.627Z,13.25
2022-12-19T22:17:06.179Z,13.27
2022-12-19T22:19:32.794Z,13.29
2022-12-19T22:21:59.491Z,13.33
2022-12-19T22:24:26.090Z,13.36
2022-12-19T22:26:52.678Z,13.39
2022-12-19T22:29:19.794Z,13.40
2022-12-19T22:31:47.275Z,13.41
2022-12-19T22:34:16.376Z,13.44
2022-12-19T22:36:43.653Z,13.44
2022-12-19T22:39:13.023Z,13.48
2022-12-19T22:41:40.227Z,13.47
2022-12-19T22:44:08.599Z,13.46
2022-12-19T22:46:37.537Z,13.47
2022-12-19T22:49:06.107Z,13.48
2022-12-19T22:51:34.885Z,13.48
2022-12-19T22:54:04.274Z,13.47
2022-12-19T22:56:32.240Z,13.47
2022-12-19T22:59:01.064Z,13.47
2022-12-19T23:01:34.220Z,13.46
2022-12-19T23:04:02.601Z,13.44
2022-12-19T23:06:32.257Z,13.39
2022-12-19T23:08:59.053Z,13.38
2022-12-19T23:11:29.366Z,13.37
2022-12-19T23:13:55.964Z,13.36
2022-12-19T23:16:22.569Z,13.39
2022-12-19T23:18:49.053Z,13.40
2022-12-19T23:21:21.466Z,13.46
2022-12-19T23:23:51.096Z,13.51
2022-12-19T23:26:20.658Z,13.57
2022-12-19T23:28:56.441Z,13.60
2022-12-19T23:31:23.586Z,13.68
2022-12-19T23:33:50.446Z,13.73
2022-12-19T23:36:32.256Z,13.76
2022-12-19T23:39:04.598Z,13.81
2022-12-19T23:41:31.211Z,13.85
2022-12-19T23:43:57.954Z,13.89
2022-12-19T23:46:26.395Z,13.93
2022-12-19T23:48:53.449Z,13.95
2022-12-19T23:51:23.007Z,13.99
2022-12-19T23:53:49.494Z,14.02
2022-12-19T23:56:24.603Z,14.05
2022-12-19T23:58:51.741Z,14.08
